createdAt,value
2023-03-06T00:01:39.392Z,3.14
2023-03-06T00:12:03.928Z,3.28
2023-03-06T00:22:28.160Z,3.44
2023-03-06T00:32:53.432Z,3.43
2023-03-06T00:43:17.839Z,3.35
2023-03-06T00:53:43.020Z,3.05
2023-03-06T01:04:07.498Z,2.76
2023-03-06T01:14:31.751Z,2.46
2023-03-06T01:24:55.928Z,2.49
2023-03-06T01:35:20.165Z,2.26
2023-03-06T01:46:20.818Z,2.21
2023-03-06T01:56:47.306Z,2.38
2023-03-06T02:07:11.990Z,2.29
2023-03-06T02:17:36.620Z,2.16
2023-03-06T02:28:01.219Z,2.14
2023-03-06T02:38:28.464Z,2.11
2023-03-06T02:48:52.698Z,2.14
2023-03-06T02:59:16.879Z,2.38
2023-03-06T03:09:41.046Z,2.57
2023-03-06T03:20:08.928Z,2.71
2023-03-06T03:30:33.170Z,2.75
2023-03-06T03:40:58.413Z,2.57
2023-03-06T03:51:22.614Z,2.09
2023-03-06T04:01:46.866Z,1.99
2023-03-06T04:12:11.167Z,2.18
2023-03-06T04:22:35.510Z,2.30
2023-03-06T04:32:59.897Z,2.37
2023-03-06T04:43:24.231Z,2.15
2023-03-06T04:53:48.527Z,2.12
2023-03-06T05:04:12.907Z,2.13
2023-03-06T05:14:37.691Z,2.10
2023-03-06T05:25:04.528Z,1.90
2023-03-06T05:35:29.341Z,1.63
2023-03-06T05:46:01.682Z,1.41
2023-03-06T05:56:25.941Z,1.56
2023-03-06T06:06:53.783Z,1.66
2023-03-06T06:17:18.069Z,1.86
2023-03-06T06:27:42.627Z,1.86
2023-03-06T06:38:06.874Z,1.80
2023-03-06T06:48:31.728Z,1.76
2023-03-06T06:59:14.019Z,1.67
2023-03-06T07:09:40.168Z,1.71
2023-03-06T07:20:06.504Z,1.76
2023-03-06T07:30:30.741Z,1.86
2023-03-06T07:40:55.226Z,2.01
2023-03-06T07:51:21.712Z,2.13
2023-03-06T08:01:46.139Z,2.39
2023-03-06T08:12:10.687Z,2.82
2023-03-06T08:22:35.947Z,3.10
2023-03-06T08:33:00.811Z,3.37
2023-03-06T08:43:25.973Z,3.71
2023-03-06T08:53:52.032Z,3.96
2023-03-06T09:04:17.089Z,4.06
2023-03-06T09:14:41.906Z,4.14
2023-03-06T09:25:09.114Z,4.41
2023-03-06T09:35:33.331Z,4.40
2023-03-06T09:45:58.669Z,4.38
2023-03-06T09:56:30.497Z,4.47
2023-03-06T10:07:00.226Z,4.60
2023-03-06T10:17:26.209Z,4.82
2023-03-06T10:27:58.435Z,4.99
2023-03-06T10:38:25.424Z,5.12
2023-03-06T10:49:22.213Z,5.04
2023-03-06T10:59:53.304Z,4.97
2023-03-06T11:10:19.657Z,5.03
2023-03-06T11:20:52.343Z,5.24
2023-03-06T11:31:21.715Z,5.39
2023-03-06T11:41:49.686Z,5.51
2023-03-06T11:52:21.772Z,5.57
2023-03-06T12:03:22.254Z,5.67
2023-03-06T12:14:14.475Z,5.68
2023-03-06T12:24:58.569Z,5.60
2023-03-06T12:35:57.761Z,5.66
2023-03-06T12:46:24.378Z,5.62
2023-03-06T12:56:51.135Z,5.52
2023-03-06T13:07:28.860Z,5.41
2023-03-06T13:17:53.247Z,5.29
2023-03-06T13:28:39.024Z,5.16
2023-03-06T13:39:08.709Z,5.08
2023-03-06T13:49:34.741Z,5.08
2023-03-06T14:00:28.796Z,5.22
2023-03-06T14:11:02.137Z,5.25
2023-03-06T14:21:30.480Z,5.01
2023-03-06T14:31:56.399Z,4.51
2023-03-06T14:42:23.553Z,4.42
2023-03-06T14:52:48.948Z,4.53
2023-03-06T15:03:17.784Z,4.49
2023-03-06T15:13:42.699Z,4.35
2023-03-06T15:24:31.145Z,4.13
2023-03-06T15:35:25.674Z,4.11
2023-03-06T15:45:50.142Z,4.07
2023-03-06T15:56:14.936Z,3.96
2023-03-06T16:06:39.468Z,3.70
2023-03-06T16:17:04.135Z,3.55
2023-03-06T16:27:28.918Z,3.45
2023-03-06T16:37:54.330Z,3.54
2023-03-06T16:48:19.172Z,3.26
2023-03-06T16:58:44.499Z,3.00
2023-03-06T17:09:10.244Z,2.83
2023-03-06T17:19:35.086Z,2.65
2023-03-06T17:30:00.939Z,2.55
2023-03-06T17:40:25.224Z,2.49
2023-03-06T17:50:54.364Z,2.57
2023-03-06T18:01:20.766Z,2.68
2023-03-06T18:11:46.133Z,2.81
2023-03-06T18:22:10.316Z,3.03
2023-03-06T18:32:35.954Z,3.32
2023-03-06T18:43:01.099Z,3.45
2023-03-06T18:53:25.468Z,3.56
2023-03-06T19:03:50.780Z,3.63
2023-03-06T19:14:16.192Z,3.61
2023-03-06T19:24:41.022Z,3.53
2023-03-06T19:35:09.916Z,3.54
2023-03-06T19:45:34.180Z,3.55
2023-03-06T19:56:04.765Z,3.64
2023-03-06T20:06:30.741Z,3.64
2023-03-06T20:16:54.941Z,3.58
2023-03-06T20:27:21.792Z,3.49
2023-03-06T20:37:45.979Z,3.38
2023-03-06T20:48:10.833Z,3.27
2023-03-06T20:58:35.844Z,3.14
2023-03-06T21:09:01.947Z,2.96
2023-03-06T21:19:26.857Z,2.91
2023-03-06T21:29:51.687Z,2.99
2023-03-06T21:40:16.564Z,3.09
2023-03-06T21:50:42.128Z,3.25
2023-03-06T22:01:10.900Z,3.37
2023-03-06T22:11:36.850Z,3.38
2023-03-06T22:22:01.704Z,3.49
2023-03-06T22:32:26.825Z,3.58
2023-03-06T22:42:51.712Z,3.34
2023-03-06T22:53:16.750Z,3.19
2023-03-06T23:03:43.136Z,3.22
2023-03-06T23:14:07.886Z,3.28
2023-03-06T23:24:35.902Z,3.48
2023-03-06T23:35:01.027Z,3.86
2023-03-06T23:45:25.390Z,3.92
2023-03-06T23:55:50.872Z,3.74
